ZGSZ

Shenzhen Bao'an International Airport

Shenzhen, China
TAF ZGSZ 211501Z 2118/2218 18005MPS 6000 FEW030 TX33/2206Z TN28/2122Z
Issued Valid From Valid To
Jul-21 @ 15:01 UTC
(8 hours ago)
Jul-21 @ 18:00 UTC
(5 hours ago)
Jul-22 @ 18:00 UTC
(in 19 hours)
Jul-21 @ 18:00 to Jul-22 @ 18:00
TAF ZGSZ 211501Z 2118/2218 18005MPS 6000 FEW030 TX33/2206Z TN28/2122Z
Wind Visibility Clouds
180° at 10 knots 6,003 meters
  • Few at 3,000' AGL
TAF ZGSZ 211501Z 2118/2218 18005MPS 6000 FEW030 TX33/2206Z TN28/2122Z
Issued Jul-21 @ 15:01 UTC
(8 hours ago)
Valid From Jul-21 @ 18:00 UTC
(5 hours ago)
Valid To Jul-22 @ 18:00 UTC
(in 19 hours)
Jul-21 @ 18:00 - Jul-22 @ 18:00
Wind Visibility
180° at 10 knots 6,003 meters
Clouds
  • Few at 3,000' AGL